createdAt,value
2022-08-17T00:01:52.745Z,78.29
2022-08-17T00:04:21.445Z,77.53
2022-08-17T00:06:53.937Z,77.45
2022-08-17T00:09:20.674Z,76.52
2022-08-17T00:12:35.009Z,78.31
2022-08-17T00:14:39.950Z,78.10
2022-08-17T00:17:07.506Z,77.60
2022-08-17T00:19:40.389Z,78.87
2022-08-17T00:22:33.585Z,78.32
2022-08-17T00:24:59.960Z,78.23
2022-08-17T00:27:33.169Z,79.29
2022-08-17T00:29:59.957Z,78.91
2022-08-17T00:33:22.894Z,79.81
2022-08-17T00:35:19.367Z,78.73
2022-08-17T00:37:46.140Z,80.35
2022-08-17T00:40:14.734Z,80.71
2022-08-17T00:42:43.025Z,81.97
2022-08-17T00:45:11.390Z,80.63
2022-08-17T00:47:42.222Z,79.17
2022-08-17T00:50:14.715Z,81.19
2022-08-17T00:52:48.115Z,81.63
2022-08-17T00:55:18.753Z,79.62
2022-08-17T00:57:50.337Z,78.78
2022-08-17T01:00:26.469Z,79.27
2022-08-17T01:03:08.726Z,79.01
2022-08-17T01:05:38.468Z,80.81
2022-08-17T01:08:23.012Z,81.45
2022-08-17T01:10:58.522Z,80.57
2022-08-17T01:13:41.725Z,80.58
2022-08-17T01:16:15.501Z,79.37
2022-08-17T01:18:47.684Z,79.50
2022-08-17T01:21:37.348Z,80.37
2022-08-17T01:24:12.893Z,79.68
2022-08-17T01:26:46.383Z,79.05
2022-08-17T01:29:16.091Z,79.41
2022-08-17T01:31:47.335Z,79.75
2022-08-17T01:34:15.486Z,79.60
2022-08-17T01:36:47.034Z,80.03
2022-08-17T01:39:40.565Z,79.76
2022-08-17T01:42:11.486Z,79.68
2022-08-17T01:44:43.224Z,79.88
2022-08-17T01:47:10.030Z,80.69
2022-08-17T01:49:39.025Z,81.12
2022-08-17T01:52:11.706Z,81.15
2022-08-17T01:54:39.560Z,81.70
2022-08-17T01:57:07.757Z,80.19
2022-08-17T01:59:36.002Z,80.01
2022-08-17T02:02:08.449Z,80.26
2022-08-17T02:04:41.335Z,81.81
2022-08-17T02:07:10.695Z,81.73
2022-08-17T02:09:37.489Z,82.09
2022-08-17T02:12:38.020Z,82.40
2022-08-17T02:15:00.722Z,81.39
2022-08-17T02:17:29.922Z,81.92
2022-08-17T02:19:56.732Z,81.35
2022-08-17T02:22:25.646Z,83.64
2022-08-17T02:25:00.522Z,83.34
2022-08-17T02:27:30.227Z,82.33
2022-08-17T02:29:59.261Z,82.92
2022-08-17T02:32:28.186Z,83.46
2022-08-17T02:34:58.112Z,82.77
2022-08-17T02:37:29.173Z,83.35
2022-08-17T02:40:00.785Z,82.81
2022-08-17T02:42:36.325Z,81.23
2022-08-17T02:45:04.702Z,83.01
2022-08-17T02:47:31.548Z,82.82
2022-08-17T02:50:00.416Z,81.48
2022-08-17T02:52:43.291Z,81.90
2022-08-17T02:55:27.328Z,81.84
2022-08-17T02:57:54.841Z,81.89
2022-08-17T03:00:23.627Z,81.23
2022-08-17T03:02:56.288Z,80.51
2022-08-17T03:05:24.871Z,80.24
2022-08-17T03:07:56.218Z,80.78
2022-08-17T03:10:24.232Z,80.09
2022-08-17T03:12:52.235Z,80.06
2022-08-17T03:15:28.383Z,80.31
2022-08-17T03:17:56.181Z,80.92
2022-08-17T03:20:24.398Z,81.26
2022-08-17T03:22:55.187Z,80.19
2022-08-17T03:25:39.807Z,80.26
2022-08-17T03:28:06.923Z,79.71
2022-08-17T03:30:35.518Z,80.34
2022-08-17T03:33:03.900Z,81.84
2022-08-17T03:35:37.124Z,81.89
2022-08-17T03:38:04.614Z,81.34
2022-08-17T03:40:57.256Z,81.88
2022-08-17T03:43:27.969Z,81.55
2022-08-17T03:46:34.190Z,82.35
2022-08-17T03:49:18.271Z,83.54
2022-08-17T03:52:03.546Z,82.57
2022-08-17T03:54:48.939Z,83.88
2022-08-17T03:57:18.750Z,83.63
2022-08-17T03:59:45.825Z,83.01
2022-08-17T04:02:15.722Z,82.03
2022-08-17T04:04:42.578Z,81.46
2022-08-17T04:07:09.541Z,83.50
2022-08-17T04:09:39.378Z,83.55
2022-08-17T04:12:06.259Z,82.51
2022-08-17T04:14:35.983Z,82.25
2022-08-17T04:17:13.612Z,82.07
2022-08-17T04:19:40.393Z,81.80
2022-08-17T04:22:32.183Z,81.54
2022-08-17T04:25:21.111Z,81.90
2022-08-17T04:27:48.345Z,83.97
2022-08-17T04:30:18.372Z,82.37
2022-08-17T04:33:07.294Z,82.52
2022-08-17T04:35:47.730Z,82.95
2022-08-17T04:38:16.081Z,82.35
2022-08-17T04:41:05.975Z,82.08
2022-08-17T04:43:34.151Z,81.22
2022-08-17T04:46:07.465Z,81.04
2022-08-17T04:48:56.588Z,81.29
2022-08-17T04:51:29.805Z,81.17
2022-08-17T04:54:00.971Z,81.27
2022-08-17T04:56:28.749Z,80.61
2022-08-17T04:59:00.801Z,80.29
2022-08-17T05:01:32.397Z,79.99
2022-08-17T05:04:33.611Z,80.08
2022-08-17T05:07:04.581Z,79.38
2022-08-17T05:09:35.706Z,79.99
2022-08-17T05:12:03.871Z,79.33
2022-08-17T05:14:32.913Z,79.44
2022-08-17T05:17:09.422Z,78.73
2022-08-17T05:19:41.185Z,78.53
2022-08-17T05:22:16.905Z,78.57
2022-08-17T05:24:53.892Z,77.82
2022-08-17T05:27:32.907Z,77.43
2022-08-17T05:30:12.160Z,76.77
2022-08-17T05:32:41.109Z,75.95
2022-08-17T05:35:09.452Z,75.36
2022-08-17T05:37:42.484Z,74.85
2022-08-17T05:40:10.160Z,73.77
2022-08-17T05:42:41.860Z,72.87
2022-08-17T05:45:15.286Z,72.40
2022-08-17T05:47:43.812Z,71.85
2022-08-17T05:50:19.588Z,72.18
2022-08-17T05:53:05.896Z,72.03
2022-08-17T05:55:48.289Z,70.04
2022-08-17T05:58:30.998Z,69.17
2022-08-17T06:01:12.307Z,68.80
2022-08-17T06:03:44.588Z,67.07
2022-08-17T06:06:17.976Z,67.06
2022-08-17T06:08:51.673Z,65.91
2022-08-17T06:11:32.498Z,66.37
2022-08-17T06:14:11.882Z,67.52
2022-08-17T06:16:46.141Z,65.73
2022-08-17T06:19:27.481Z,62.01
2022-08-17T06:21:58.101Z,62.03
2022-08-17T06:24:34.730Z,63.48
2022-08-17T06:27:07.171Z,58.53
2022-08-17T06:29:47.031Z,53.05
2022-08-17T06:32:17.157Z,56.68
2022-08-17T06:34:47.662Z,56.53
2022-08-17T06:37:14.941Z,54.46
2022-08-17T06:39:47.729Z,53.74
2022-08-17T06:43:04.073Z,53.57
2022-08-17T06:45:13.987Z,51.82
2022-08-17T06:48:00.995Z,48.26
2022-08-17T06:50:52.011Z,49.45
2022-08-17T06:53:25.937Z,45.76
2022-08-17T06:56:18.579Z,50.77
2022-08-17T06:58:49.472Z,43.91
2022-08-17T07:01:27.668Z,44.08
2022-08-17T07:04:05.135Z,41.42
2022-08-17T07:06:44.720Z,39.89
2022-08-17T07:09:25.161Z,40.59
2022-08-17T07:12:03.165Z,43.75
2022-08-17T07:14:48.129Z,40.36
2022-08-17T07:17:46.403Z,44.10
2022-08-17T07:20:14.483Z,44.17
2022-08-17T07:22:58.208Z,39.15
2022-08-17T07:25:30.117Z,38.69
2022-08-17T07:27:59.833Z,42.14
2022-08-17T07:30:28.621Z,39.23
2022-08-17T07:33:13.375Z,37.16
2022-08-17T07:35:50.198Z,40.20
2022-08-17T07:38:24.125Z,37.73
2022-08-17T07:41:05.575Z,37.24
2022-08-17T07:43:37.678Z,36.12
2022-08-17T07:46:23.145Z,32.64
2022-08-17T07:48:56.246Z,34.81
2022-08-17T07:51:25.826Z,31.72
2022-08-17T07:54:09.138Z,33.88
2022-08-17T07:56:53.875Z,30.51
2022-08-17T07:59:34.021Z,29.49
2022-08-17T08:02:16.913Z,31.66
2022-08-17T08:05:01.038Z,31.95
2022-08-17T08:07:36.560Z,29.07
2022-08-17T08:10:13.298Z,27.43
2022-08-17T08:13:03.027Z,27.75
2022-08-17T08:15:45.148Z,29.83
2022-08-17T08:18:54.719Z,26.43
2022-08-17T08:21:29.491Z,27.81
2022-08-17T08:24:01.897Z,29.36
2022-08-17T08:26:48.572Z,25.85
2022-08-17T08:29:20.879Z,25.08
2022-08-17T08:31:57.142Z,25.65
2022-08-17T08:34:58.563Z,25.23
2022-08-17T08:37:33.641Z,26.18
2022-08-17T08:40:16.501Z,25.81
2022-08-17T08:42:46.356Z,25.67
2022-08-17T08:45:23.619Z,25.20
2022-08-17T08:47:53.483Z,25.60
2022-08-17T08:50:40.007Z,26.93
2022-08-17T08:53:12.426Z,27.04
2022-08-17T08:55:58.119Z,26.38
2022-08-17T08:58:41.904Z,26.05
2022-08-17T09:01:25.475Z,25.91
2022-08-17T09:04:24.207Z,24.33
2022-08-17T09:06:56.115Z,23.85
2022-08-17T09:09:44.888Z,22.45
2022-08-17T09:12:23.216Z,23.33
2022-08-17T09:15:13.199Z,23.78
2022-08-17T09:17:49.377Z,22.73
2022-08-17T09:20:28.761Z,22.14
2022-08-17T09:23:08.341Z,21.91
2022-08-17T09:25:45.943Z,22.28
2022-08-17T09:28:28.338Z,23.70
2022-08-17T09:31:03.765Z,22.21
2022-08-17T09:33:39.989Z,21.71
2022-08-17T09:36:18.295Z,23.05
2022-08-17T09:38:48.042Z,22.26
2022-08-17T09:41:21.803Z,22.95
2022-08-17T09:43:55.763Z,20.87
2022-08-17T09:46:39.328Z,20.52
2022-08-17T09:49:26.136Z,21.53
2022-08-17T09:52:09.048Z,20.56
2022-08-17T09:54:39.607Z,21.98
2022-08-17T09:57:29.052Z,20.97
2022-08-17T10:00:09.065Z,20.60
2022-08-17T10:03:00.098Z,21.06
2022-08-17T10:05:36.982Z,21.64
2022-08-17T10:08:21.688Z,21.42
2022-08-17T10:11:00.191Z,20.57
2022-08-17T10:13:53.167Z,20.21
2022-08-17T10:16:41.634Z,20.59
2022-08-17T10:19:11.205Z,19.82
2022-08-17T10:22:00.795Z,20.08
2022-08-17T10:25:23.153Z,20.51
2022-08-17T10:27:48.237Z,20.93
2022-08-17T10:30:21.991Z,20.72
2022-08-17T10:32:54.740Z,20.85
2022-08-17T10:35:37.464Z,22.11
2022-08-17T10:38:25.049Z,20.96
2022-08-17T10:40:58.073Z,20.76
2022-08-17T10:43:24.873Z,21.32
2022-08-17T10:46:30.495Z,20.93
2022-08-17T10:49:10.647Z,20.61
2022-08-17T10:51:38.708Z,20.29
2022-08-17T10:54:30.659Z,21.33
2022-08-17T10:56:58.517Z,21.81
2022-08-17T10:59:34.617Z,22.46
2022-08-17T11:02:09.673Z,22.82
2022-08-17T11:04:47.349Z,23.28
2022-08-17T11:07:20.009Z,24.05
2022-08-17T11:10:06.012Z,24.52
2022-08-17T11:12:54.143Z,24.99
2022-08-17T11:15:41.922Z,25.31
2022-08-17T11:18:14.734Z,25.00
2022-08-17T11:21:09.302Z,24.71
2022-08-17T11:23:55.769Z,24.71
2022-08-17T11:26:36.982Z,24.39
2022-08-17T11:29:08.447Z,24.34
2022-08-17T11:31:40.125Z,24.03
2022-08-17T11:34:26.672Z,23.25
2022-08-17T11:37:12.717Z,23.20
2022-08-17T11:39:51.523Z,23.66
2022-08-17T11:42:31.858Z,23.33
2022-08-17T11:45:31.944Z,22.49
2022-08-17T11:48:28.314Z,22.95
2022-08-17T11:51:26.196Z,23.35
2022-08-17T11:54:08.758Z,23.97
2022-08-17T11:56:54.087Z,24.47
2022-08-17T11:59:35.356Z,24.92
2022-08-17T12:02:04.215Z,25.34
2022-08-17T12:04:32.426Z,25.29
2022-08-17T12:07:12.914Z,25.53
2022-08-17T12:09:43.311Z,26.28
2022-08-17T12:12:15.396Z,26.84
2022-08-17T12:17:42.991Z,32.49
2022-08-17T12:20:34.030Z,32.82
2022-08-17T12:23:25.421Z,35.38
2022-08-17T12:25:57.972Z,37.66
2022-08-17T12:28:30.519Z,39.21
2022-08-17T12:31:23.500Z,38.21
2022-08-17T12:33:51.258Z,43.67
2022-08-17T12:36:26.114Z,46.33
2022-08-17T12:39:12.993Z,47.75
2022-08-17T12:41:55.454Z,44.36
2022-08-17T12:44:31.856Z,44.19
2022-08-17T12:47:03.195Z,44.13
2022-08-17T12:49:35.165Z,45.28
2022-08-17T12:52:17.257Z,45.73
2022-08-17T12:55:00.374Z,43.67
2022-08-17T12:57:33.059Z,41.59
2022-08-17T13:00:06.963Z,40.09
2022-08-17T13:02:43.244Z,40.36
2022-08-17T13:05:31.257Z,38.88
2022-08-17T13:08:05.517Z,38.75
2022-08-17T13:10:35.597Z,37.91
2022-08-17T13:13:05.451Z,37.78
2022-08-17T13:15:37.389Z,37.53
2022-08-17T13:18:34.709Z,37.76
2022-08-17T13:21:01.892Z,37.59
2022-08-17T13:23:33.489Z,37.42
2022-08-17T13:26:04.895Z,37.80
2022-08-17T13:28:35.946Z,38.19
2022-08-17T13:31:26.721Z,37.60
2022-08-17T13:34:14.140Z,37.27
2022-08-17T13:36:46.825Z,36.83
2022-08-17T13:39:20.981Z,36.68
2022-08-17T13:41:49.080Z,36.97
2022-08-17T13:44:35.564Z,36.97
2022-08-17T13:47:03.867Z,36.80
2022-08-17T13:49:48.252Z,37.24
2022-08-17T13:52:31.241Z,37.32
2022-08-17T13:55:00.315Z,37.97
2022-08-17T13:57:27.306Z,38.35
2022-08-17T14:00:06.219Z,38.15
2022-08-17T14:02:35.178Z,38.36
2022-08-17T14:05:06.291Z,38.42
2022-08-17T14:07:36.957Z,38.84
2022-08-17T14:10:14.648Z,38.55
2022-08-17T14:12:43.482Z,39.16
2022-08-17T14:15:14.014Z,38.85
2022-08-17T14:17:41.999Z,38.18
2022-08-17T14:20:11.315Z,37.56
2022-08-17T14:22:49.138Z,37.07
2022-08-17T14:25:20.222Z,36.40
2022-08-17T14:27:52.808Z,36.40
2022-08-17T14:30:31.941Z,36.43
2022-08-17T14:32:59.013Z,36.21
2022-08-17T14:35:29.587Z,35.55
2022-08-17T14:37:57.801Z,35.09
2022-08-17T14:40:25.147Z,35.01
2022-08-17T14:42:57.486Z,34.96
2022-08-17T14:45:32.587Z,35.19
2022-08-17T14:48:01.560Z,34.73
2022-08-17T14:50:29.035Z,34.95
2022-08-17T14:52:56.192Z,35.17
2022-08-17T14:55:31.815Z,35.27
2022-08-17T14:58:07.110Z,35.09
2022-08-17T15:00:34.302Z,34.74
2022-08-17T15:03:04.040Z,34.73
2022-08-17T15:05:34.430Z,34.26
2022-08-17T15:08:02.109Z,34.32
2022-08-17T15:10:30.425Z,34.18
2022-08-17T15:12:57.774Z,33.99
2022-08-17T15:15:24.529Z,33.60
2022-08-17T15:17:58.123Z,34.27
2022-08-17T15:20:27.728Z,34.27
2022-08-17T15:22:55.443Z,33.52
2022-08-17T15:25:28.308Z,33.60
2022-08-17T15:27:55.390Z,33.50
2022-08-17T15:30:23.939Z,34.17
2022-08-17T15:32:56.166Z,33.99
2022-08-17T15:35:29.503Z,34.10
2022-08-17T15:38:07.827Z,34.07
2022-08-17T15:40:45.750Z,34.02
2022-08-17T15:43:15.111Z,34.16
2022-08-17T15:45:44.638Z,34.16
2022-08-17T15:48:40.249Z,34.25
2022-08-17T15:51:08.459Z,34.13
2022-08-17T15:53:35.431Z,34.00
2022-08-17T15:56:07.639Z,34.11
2022-08-17T15:58:38.173Z,34.58
2022-08-17T16:01:14.658Z,34.66
2022-08-17T16:04:03.954Z,34.71
2022-08-17T16:06:34.353Z,34.55
2022-08-17T16:09:01.419Z,34.56
2022-08-17T16:11:29.240Z,34.89
2022-08-17T16:13:56.303Z,34.96
2022-08-17T16:16:28.524Z,34.83
2022-08-17T16:18:58.729Z,35.00
2022-08-17T16:21:43.210Z,34.96
2022-08-17T16:24:18.423Z,35.30
2022-08-17T16:26:45.173Z,35.19
2022-08-17T16:29:17.801Z,35.60
2022-08-17T16:31:48.710Z,35.86
2022-08-17T16:34:18.681Z,35.90
2022-08-17T16:36:56.501Z,35.96
2022-08-17T16:39:30.926Z,36.14
2022-08-17T16:41:57.794Z,36.88
2022-08-17T16:44:28.541Z,37.18
2022-08-17T16:46:57.976Z,37.35
2022-08-17T16:49:36.656Z,37.18
2022-08-17T16:52:14.162Z,37.29
2022-08-17T16:55:01.272Z,37.36
2022-08-17T16:57:29.318Z,38.02
2022-08-17T16:59:56.183Z,37.88
2022-08-17T17:02:27.515Z,37.75
2022-08-17T17:05:06.733Z,38.07
2022-08-17T17:07:45.356Z,38.51
2022-08-17T17:10:15.807Z,38.61
2022-08-17T17:13:02.303Z,38.48
2022-08-17T17:15:51.174Z,38.95
2022-08-17T17:18:25.149Z,39.18
2022-08-17T17:21:00.676Z,38.81
2022-08-17T17:23:47.748Z,39.12
2022-08-17T17:26:36.621Z,40.45
2022-08-17T17:29:19.699Z,41.44
2022-08-17T17:32:06.251Z,41.77
2022-08-17T17:34:39.947Z,42.47
2022-08-17T17:37:11.572Z,42.99
2022-08-17T17:39:43.846Z,43.05
2022-08-17T17:42:21.730Z,43.43
2022-08-17T17:44:57.875Z,43.09
2022-08-17T17:47:26.959Z,42.94
2022-08-17T17:49:53.884Z,43.01
2022-08-17T17:52:35.898Z,43.45
2022-08-17T17:55:08.531Z,43.34
2022-08-17T17:57:44.484Z,43.39
2022-08-17T18:00:15.261Z,43.68
2022-08-17T18:02:52.761Z,43.77
2022-08-17T18:05:20.713Z,44.06
2022-08-17T18:07:53.851Z,43.62
2022-08-17T18:10:33.719Z,44.26
2022-08-17T18:13:00.497Z,44.26
2022-08-17T18:15:40.618Z,44.68
2022-08-17T18:18:09.515Z,44.47
2022-08-17T18:20:53.308Z,44.42
2022-08-17T18:23:27.603Z,44.60
2022-08-17T18:26:01.372Z,44.54
2022-08-17T18:28:30.954Z,44.97
2022-08-17T18:31:09.887Z,45.37
2022-08-17T18:33:43.435Z,44.43
2022-08-17T18:36:14.788Z,44.32
2022-08-17T18:38:43.579Z,43.20
2022-08-17T18:41:17.055Z,43.97
2022-08-17T18:43:53.569Z,44.15
2022-08-17T18:46:28.818Z,43.57
2022-08-17T18:49:07.076Z,44.67
2022-08-17T18:51:41.440Z,44.27
2022-08-17T18:54:20.331Z,44.82
2022-08-17T18:56:50.956Z,45.80
2022-08-17T18:59:24.930Z,45.77
2022-08-17T19:01:59.720Z,45.03
2022-08-17T19:04:51.268Z,44.42
2022-08-17T19:07:27.941Z,45.90
2022-08-17T19:10:19.514Z,47.02
2022-08-17T19:13:00.498Z,46.41
2022-08-17T19:15:39.500Z,47.81
2022-08-17T19:18:15.572Z,48.73
2022-08-17T19:20:54.774Z,48.64
2022-08-17T19:23:37.707Z,47.99
2022-08-17T19:26:51.375Z,48.28
2022-08-17T19:28:59.312Z,48.03
2022-08-17T19:31:27.263Z,49.27
2022-08-17T19:34:00.669Z,48.36
2022-08-17T19:36:50.369Z,48.61
2022-08-17T19:39:42.003Z,49.15
2022-08-17T19:42:17.801Z,51.10
2022-08-17T19:45:00.092Z,49.63
2022-08-17T19:48:04.534Z,50.42
2022-08-17T19:50:42.799Z,48.70
2022-08-17T19:54:06.972Z,49.19
2022-08-17T19:56:45.919Z,48.95
2022-08-17T19:59:27.651Z,51.01
2022-08-17T20:02:22.948Z,50.83
2022-08-17T20:04:55.134Z,50.92
2022-08-17T20:07:28.276Z,50.48
2022-08-17T20:10:07.743Z,50.38
2022-08-17T20:12:39.412Z,51.16
2022-08-17T20:15:10.738Z,52.41
2022-08-17T20:17:40.077Z,53.25
2022-08-17T20:20:23.245Z,54.00
2022-08-17T20:22:58.790Z,54.75
2022-08-17T20:25:47.128Z,57.86
2022-08-17T20:28:27.660Z,58.84
2022-08-17T20:30:58.998Z,59.87
2022-08-17T20:33:33.683Z,60.35
2022-08-17T20:36:11.716Z,61.27
2022-08-17T20:38:44.501Z,59.93
2022-08-17T20:41:20.974Z,59.36
2022-08-17T20:44:06.974Z,61.49
2022-08-17T20:46:37.292Z,62.60
2022-08-17T20:49:17.957Z,60.44
2022-08-17T20:52:05.453Z,62.73
2022-08-17T20:54:56.776Z,64.12
2022-08-17T20:57:39.379Z,64.62
2022-08-17T21:00:16.769Z,64.45
2022-08-17T21:02:53.122Z,60.58
2022-08-17T21:05:57.411Z,64.50
2022-08-17T21:08:29.182Z,64.47
2022-08-17T21:10:57.201Z,62.32
2022-08-17T21:13:48.158Z,64.91
2022-08-17T21:16:29.334Z,65.67
2022-08-17T21:19:08.185Z,63.53
2022-08-17T21:21:48.047Z,65.20
2022-08-17T21:24:28.138Z,63.62
2022-08-17T21:27:11.542Z,63.41
2022-08-17T21:29:54.064Z,61.77
2022-08-17T21:32:29.983Z,61.92
2022-08-17T21:35:07.377Z,62.73
2022-08-17T21:37:44.967Z,63.91
2022-08-17T21:40:17.729Z,63.99
2022-08-17T21:42:47.475Z,62.83
2022-08-17T21:45:22.861Z,66.45
2022-08-17T21:47:51.048Z,65.42
2022-08-17T21:50:24.020Z,64.86
2022-08-17T21:52:55.405Z,65.56
2022-08-17T21:55:28.743Z,65.31
2022-08-17T21:58:12.184Z,65.84
2022-08-17T22:00:47.076Z,67.20
2022-08-17T22:03:25.463Z,67.39
2022-08-17T22:05:52.206Z,65.73
2022-08-17T22:08:21.752Z,65.09
2022-08-17T22:10:50.691Z,64.69
2022-08-17T22:13:17.752Z,65.86
2022-08-17T22:15:50.477Z,66.49
2022-08-17T22:18:21.737Z,67.11
2022-08-17T22:20:52.680Z,68.07
2022-08-17T22:23:49.992Z,68.60
2022-08-17T22:26:18.958Z,67.86
2022-08-17T22:28:48.804Z,67.39
2022-08-17T22:31:29.522Z,66.90
2022-08-17T22:34:02.161Z,68.89
2022-08-17T22:36:34.794Z,70.55
2022-08-17T22:39:10.433Z,71.01
2022-08-17T22:41:59.274Z,69.32
2022-08-17T22:44:32.619Z,70.89
2022-08-17T22:47:19.216Z,69.34
2022-08-17T22:49:53.904Z,71.21
2022-08-17T22:52:24.126Z,69.78
2022-08-17T22:55:32.316Z,69.64
2022-08-17T22:58:19.613Z,69.30
2022-08-17T23:00:47.965Z,70.20
2022-08-17T23:03:22.608Z,71.14
2022-08-17T23:06:04.028Z,73.22
2022-08-17T23:08:31.545Z,73.78
2022-08-17T23:11:01.282Z,71.33
2022-08-17T23:13:28.249Z,71.10
2022-08-17T23:15:55.296Z,71.39
2022-08-17T23:18:26.850Z,73.78
2022-08-17T23:20:59.869Z,74.42
2022-08-17T23:23:34.419Z,72.48
2022-08-17T23:26:01.800Z,72.60
2022-08-17T23:28:29.941Z,74.06
2022-08-17T23:30:57.801Z,72.26
2022-08-17T23:33:40.125Z,70.73
2022-08-17T23:36:09.574Z,71.59
2022-08-17T23:38:36.627Z,71.57
2022-08-17T23:41:10.562Z,69.20
2022-08-17T23:43:39.368Z,69.34
2022-08-17T23:46:07.120Z,70.22
2022-08-17T23:48:36.870Z,70.13
2022-08-17T23:51:09.591Z,70.64
2022-08-17T23:53:39.690Z,70.57
2022-08-17T23:56:11.063Z,70.70
2022-08-17T23:58:39.612Z,71.62
